sensor_id;sensor_type;location;lat;lon;timestamp;temperature;humidity
20845;DHT22;10583;49.084;8.646;2022-08-14T00:00:53;16.80;99.90
20845;DHT22;10583;49.084;8.646;2022-08-14T00:03:21;16.70;99.90
20845;DHT22;10583;49.084;8.646;2022-08-14T00:05:49;16.50;99.90
20845;DHT22;10583;49.084;8.646;2022-08-14T00:08:16;16.40;99.90
20845;DHT22;10583;49.084;8.646;2022-08-14T00:10:43;16.50;99.90
20845;DHT22;10583;49.084;8.646;2022-08-14T00:13:10;16.60;99.90
20845;DHT22;10583;49.084;8.646;2022-08-14T00:15:41;16.60;99.90
20845;DHT22;10583;49.084;8.646;2022-08-14T00:18:10;16.70;99.90
20845;DHT22;10583;49.084;8.646;2022-08-14T00:20:40;16.70;99.90
20845;DHT22;10583;49.084;8.646;2022-08-14T00:23:08;16.70;99.90
20845;DHT22;10583;49.084;8.646;2022-08-14T00:25:35;16.70;99.90
20845;DHT22;10583;49.084;8.646;2022-08-14T00:28:03;16.60;99.90
20845;DHT22;10583;49.084;8.646;2022-08-14T00:30:30;16.50;99.90
20845;DHT22;10583;49.084;8.646;2022-08-14T00:32:58;16.40;99.90
20845;DHT22;10583;49.084;8.646;2022-08-14T00:35:25;16.40;99.90
20845;DHT22;10583;49.084;8.646;2022-08-14T00:37:51;16.50;99.90
20845;DHT22;10583;49.084;8.646;2022-08-14T00:40:20;16.50;99.90
20845;DHT22;10583;49.084;8.646;2022-08-14T00:42:47;16.60;99.90
20845;DHT22;10583;49.084;8.646;2022-08-14T00:45:14;16.70;99.90
20845;DHT22;10583;49.084;8.646;2022-08-14T00:47:43;16.60;99.90
20845;DHT22;10583;49.084;8.646;2022-08-14T00:50:14;16.50;99.90
20845;DHT22;10583;49.084;8.646;2022-08-14T00:52:42;16.60;99.90
20845;DHT22;10583;49.084;8.646;2022-08-14T00:55:10;16.70;99.90
20845;DHT22;10583;49.084;8.646;2022-08-14T00:57:38;16.70;99.90
20845;DHT22;10583;49.084;8.646;2022-08-14T01:00:11;16.70;99.90
20845;DHT22;10583;49.084;8.646;2022-08-14T01:02:40;16.70;99.90
20845;DHT22;10583;49.084;8.646;2022-08-14T01:05:09;16.70;99.90
20845;DHT22;10583;49.084;8.646;2022-08-14T01:07:50;16.70;99.90
20845;DHT22;10583;49.084;8.646;2022-08-14T01:10:19;16.60;99.90
20845;DHT22;10583;49.084;8.646;2022-08-14T01:12:46;16.60;99.90
20845;DHT22;10583;49.084;8.646;2022-08-14T01:15:15;16.50;99.90
20845;DHT22;10583;49.084;8.646;2022-08-14T01:17:46;16.40;99.90
20845;DHT22;10583;49.084;8.646;2022-08-14T01:20:41;16.40;99.90
20845;DHT22;10583;49.084;8.646;2022-08-14T01:23:27;16.40;99.90
20845;DHT22;10583;49.084;8.646;2022-08-14T01:25:53;16.30;99.90
20845;DHT22;10583;49.084;8.646;2022-08-14T01:28:20;16.20;99.90
20845;DHT22;10583;49.084;8.646;2022-08-14T01:30:48;16.20;99.90
20845;DHT22;10583;49.084;8.646;2022-08-14T01:33:20;16.10;99.90
20845;DHT22;10583;49.084;8.646;2022-08-14T01:35:47;16.10;99.90
20845;DHT22;10583;49.084;8.646;2022-08-14T01:38:14;16.00;99.90
20845;DHT22;10583;49.084;8.646;2022-08-14T01:40:45;16.00;99.90
20845;DHT22;10583;49.084;8.646;2022-08-14T01:43:13;15.90;99.90
20845;DHT22;10583;49.084;8.646;2022-08-14T01:45:43;15.80;99.90
20845;DHT22;10583;49.084;8.646;2022-08-14T01:48:10;15.80;99.90
20845;DHT22;10583;49.084;8.646;2022-08-14T01:50:37;15.80;99.90
20845;DHT22;10583;49.084;8.646;2022-08-14T01:53:06;15.90;99.90
20845;DHT22;10583;49.084;8.646;2022-08-14T01:55:32;15.90;99.90
20845;DHT22;10583;49.084;8.646;2022-08-14T01:58:01;16.00;99.90
20845;DHT22;10583;49.084;8.646;2022-08-14T02:00:28;16.00;99.90
20845;DHT22;10583;49.084;8.646;2022-08-14T02:02:55;16.00;99.90
20845;DHT22;10583;49.084;8.646;2022-08-14T02:05:24;16.00;99.90
20845;DHT22;10583;49.084;8.646;2022-08-14T02:07:53;16.00;99.90
20845;DHT22;10583;49.084;8.646;2022-08-14T02:10:21;16.00;99.90
20845;DHT22;10583;49.084;8.646;2022-08-14T02:12:47;15.90;99.90
20845;DHT22;10583;49.084;8.646;2022-08-14T02:15:15;15.90;99.90
20845;DHT22;10583;49.084;8.646;2022-08-14T02:17:46;15.90;99.90
20845;DHT22;10583;49.084;8.646;2022-08-14T02:20:13;15.80;99.90
20845;DHT22;10583;49.084;8.646;2022-08-14T02:22:42;15.70;99.90
20845;DHT22;10583;49.084;8.646;2022-08-14T02:25:09;15.60;99.90
20845;DHT22;10583;49.084;8.646;2022-08-14T02:27:36;15.60;99.90
20845;DHT22;10583;49.084;8.646;2022-08-14T02:30:07;15.50;99.90
20845;DHT22;10583;49.084;8.646;2022-08-14T02:32:35;15.50;99.90
20845;DHT22;10583;49.084;8.646;2022-08-14T02:35:04;15.40;99.90
20845;DHT22;10583;49.084;8.646;2022-08-14T02:37:43;15.40;99.90
20845;DHT22;10583;49.084;8.646;2022-08-14T02:40:10;15.40;99.90
20845;DHT22;10583;49.084;8.646;2022-08-14T02:42:38;15.30;99.90
20845;DHT22;10583;49.084;8.646;2022-08-14T02:45:06;15.30;99.90
20845;DHT22;10583;49.084;8.646;2022-08-14T02:47:35;15.20;99.90
20845;DHT22;10583;49.084;8.646;2022-08-14T02:50:02;15.20;99.90
20845;DHT22;10583;49.084;8.646;2022-08-14T02:52:29;15.20;99.90
20845;DHT22;10583;49.084;8.646;2022-08-14T02:54:55;15.20;99.90
20845;DHT22;10583;49.084;8.646;2022-08-14T02:57:22;15.20;99.90
20845;DHT22;10583;49.084;8.646;2022-08-14T02:59:50;15.10;99.90
20845;DHT22;10583;49.084;8.646;2022-08-14T03:02:17;15.10;99.90
20845;DHT22;10583;49.084;8.646;2022-08-14T03:04:45;15.10;99.90
20845;DHT22;10583;49.084;8.646;2022-08-14T03:07:12;15.10;99.90
20845;DHT22;10583;49.084;8.646;2022-08-14T03:09:41;15.10;99.90
20845;DHT22;10583;49.084;8.646;2022-08-14T03:12:08;15.00;99.90
20845;DHT22;10583;49.084;8.646;2022-08-14T03:14:35;15.00;99.90
20845;DHT22;10583;49.084;8.646;2022-08-14T03:17:03;15.10;99.90
20845;DHT22;10583;49.084;8.646;2022-08-14T03:19:34;15.10;99.90
20845;DHT22;10583;49.084;8.646;2022-08-14T03:22:03;15.10;99.90
20845;DHT22;10583;49.084;8.646;2022-08-14T03:24:30;15.00;99.90
20845;DHT22;10583;49.084;8.646;2022-08-14T03:26:56;15.00;99.90
20845;DHT22;10583;49.084;8.646;2022-08-14T03:29:24;14.90;99.90
20845;DHT22;10583;49.084;8.646;2022-08-14T03:31:52;14.90;99.90
20845;DHT22;10583;49.084;8.646;2022-08-14T03:34:18;14.80;99.90
20845;DHT22;10583;49.084;8.646;2022-08-14T03:36:46;14.80;99.90
20845;DHT22;10583;49.084;8.646;2022-08-14T03:39:18;14.60;99.90
20845;DHT22;10583;49.084;8.646;2022-08-14T03:41:44;14.40;99.90
20845;DHT22;10583;49.084;8.646;2022-08-14T03:44:12;14.30;99.90
20845;DHT22;10583;49.084;8.646;2022-08-14T03:46:39;14.40;99.90
20845;DHT22;10583;49.084;8.646;2022-08-14T03:49:07;14.40;99.90
20845;DHT22;10583;49.084;8.646;2022-08-14T03:51:35;14.20;99.90
20845;DHT22;10583;49.084;8.646;2022-08-14T03:54:04;14.20;99.90
20845;DHT22;10583;49.084;8.646;2022-08-14T03:56:34;14.30;99.90
20845;DHT22;10583;49.084;8.646;2022-08-14T03:59:04;14.30;99.90
20845;DHT22;10583;49.084;8.646;2022-08-14T04:01:36;14.30;99.90
20845;DHT22;10583;49.084;8.646;2022-08-14T04:04:04;14.20;99.90
20845;DHT22;10583;49.084;8.646;2022-08-14T04:06:31;14.20;99.90
20845;DHT22;10583;49.084;8.646;2022-08-14T04:08:58;14.30;99.90
20845;DHT22;10583;49.084;8.646;2022-08-14T04:11:25;14.30;99.90
20845;DHT22;10583;49.084;8.646;2022-08-14T04:13:53;14.40;99.90
20845;DHT22;10583;49.084;8.646;2022-08-14T04:16:21;14.40;99.90
20845;DHT22;10583;49.084;8.646;2022-08-14T04:18:50;14.40;99.90
20845;DHT22;10583;49.084;8.646;2022-08-14T04:21:19;14.40;99.90
20845;DHT22;10583;49.084;8.646;2022-08-14T04:23:46;14.40;99.90
20845;DHT22;10583;49.084;8.646;2022-08-14T04:26:14;14.40;99.90
20845;DHT22;10583;49.084;8.646;2022-08-14T04:28:44;14.40;99.90
20845;DHT22;10583;49.084;8.646;2022-08-14T04:31:12;14.40;99.90
20845;DHT22;10583;49.084;8.646;2022-08-14T04:33:39;14.40;99.90
20845;DHT22;10583;49.084;8.646;2022-08-14T04:36:06;14.40;99.90
20845;DHT22;10583;49.084;8.646;2022-08-14T04:38:33;14.50;99.90
20845;DHT22;10583;49.084;8.646;2022-08-14T04:41:17;14.50;99.90
20845;DHT22;10583;49.084;8.646;2022-08-14T04:44:07;14.40;99.90
20845;DHT22;10583;49.084;8.646;2022-08-14T04:46:35;14.50;99.90
20845;DHT22;10583;49.084;8.646;2022-08-14T04:49:02;14.60;99.90
20845;DHT22;10583;49.084;8.646;2022-08-14T04:51:28;14.70;99.90
20845;DHT22;10583;49.084;8.646;2022-08-14T04:53:55;14.70;99.90
20845;DHT22;10583;49.084;8.646;2022-08-14T04:56:24;14.80;99.90
20845;DHT22;10583;49.084;8.646;2022-08-14T04:58:52;14.80;99.90
20845;DHT22;10583;49.084;8.646;2022-08-14T05:01:22;14.90;99.90
20845;DHT22;10583;49.084;8.646;2022-08-14T05:03:51;15.10;99.90
20845;DHT22;10583;49.084;8.646;2022-08-14T05:06:19;15.10;99.90
20845;DHT22;10583;49.084;8.646;2022-08-14T05:08:47;15.20;99.90
20845;DHT22;10583;49.084;8.646;2022-08-14T05:11:14;15.30;99.90
20845;DHT22;10583;49.084;8.646;2022-08-14T05:13:43;15.40;99.90
20845;DHT22;10583;49.084;8.646;2022-08-14T05:16:10;15.50;99.90
20845;DHT22;10583;49.084;8.646;2022-08-14T05:18:39;15.70;99.90
20845;DHT22;10583;49.084;8.646;2022-08-14T05:21:08;16.00;99.90
20845;DHT22;10583;49.084;8.646;2022-08-14T05:23:37;16.20;99.90
20845;DHT22;10583;49.084;8.646;2022-08-14T05:26:05;16.40;99.90
20845;DHT22;10583;49.084;8.646;2022-08-14T05:28:38;16.60;99.90
20845;DHT22;10583;49.084;8.646;2022-08-14T05:31:07;16.80;99.90
20845;DHT22;10583;49.084;8.646;2022-08-14T05:33:35;16.90;99.90
20845;DHT22;10583;49.084;8.646;2022-08-14T05:36:04;17.00;99.90
20845;DHT22;10583;49.084;8.646;2022-08-14T05:38:34;17.10;99.90
20845;DHT22;10583;49.084;8.646;2022-08-14T05:41:04;17.20;99.90
20845;DHT22;10583;49.084;8.646;2022-08-14T05:43:31;17.30;99.90
20845;DHT22;10583;49.084;8.646;2022-08-14T05:45:59;17.40;99.90
20845;DHT22;10583;49.084;8.646;2022-08-14T05:48:27;17.50;99.90
20845;DHT22;10583;49.084;8.646;2022-08-14T05:50:54;17.60;99.90
20845;DHT22;10583;49.084;8.646;2022-08-14T05:53:22;17.60;99.90
20845;DHT22;10583;49.084;8.646;2022-08-14T05:55:50;17.60;99.90
20845;DHT22;10583;49.084;8.646;2022-08-14T05:58:18;17.70;99.90
20845;DHT22;10583;49.084;8.646;2022-08-14T06:00:45;17.90;99.90
20845;DHT22;10583;49.084;8.646;2022-08-14T06:03:14;18.20;99.90
20845;DHT22;10583;49.084;8.646;2022-08-14T06:05:41;18.50;99.90
20845;DHT22;10583;49.084;8.646;2022-08-14T06:08:14;18.80;99.90
20845;DHT22;10583;49.084;8.646;2022-08-14T06:10:42;19.00;99.90
20845;DHT22;10583;49.084;8.646;2022-08-14T06:13:11;19.20;99.90
20845;DHT22;10583;49.084;8.646;2022-08-14T06:15:37;19.50;99.90
20845;DHT22;10583;49.084;8.646;2022-08-14T06:18:05;19.80;99.90
20845;DHT22;10583;49.084;8.646;2022-08-14T06:20:32;20.10;99.90
20845;DHT22;10583;49.084;8.646;2022-08-14T06:22:59;20.30;99.90
20845;DHT22;10583;49.084;8.646;2022-08-14T06:25:26;20.50;99.90
20845;DHT22;10583;49.084;8.646;2022-08-14T06:27:53;20.70;99.90
20845;DHT22;10583;49.084;8.646;2022-08-14T06:30:23;20.90;99.90
20845;DHT22;10583;49.084;8.646;2022-08-14T06:32:50;21.10;99.90
20845;DHT22;10583;49.084;8.646;2022-08-14T06:35:17;21.30;99.90
20845;DHT22;10583;49.084;8.646;2022-08-14T06:37:47;21.60;99.90
20845;DHT22;10583;49.084;8.646;2022-08-14T06:40:15;21.80;99.90
20845;DHT22;10583;49.084;8.646;2022-08-14T06:42:43;22.00;99.90
20845;DHT22;10583;49.084;8.646;2022-08-14T06:45:10;22.30;99.90
20845;DHT22;10583;49.084;8.646;2022-08-14T06:47:41;22.50;99.90
20845;DHT22;10583;49.084;8.646;2022-08-14T06:50:10;22.70;99.90
20845;DHT22;10583;49.084;8.646;2022-08-14T06:52:37;22.90;99.90
20845;DHT22;10583;49.084;8.646;2022-08-14T06:55:07;23.00;99.80
20845;DHT22;10583;49.084;8.646;2022-08-14T06:57:35;23.10;99.50
20845;DHT22;10583;49.084;8.646;2022-08-14T07:00:05;23.10;99.00
20845;DHT22;10583;49.084;8.646;2022-08-14T07:02:32;23.40;99.30
20845;DHT22;10583;49.084;8.646;2022-08-14T07:05:18;23.60;98.50
20845;DHT22;10583;49.084;8.646;2022-08-14T07:08:03;23.80;97.70
20845;DHT22;10583;49.084;8.646;2022-08-14T07:10:30;23.90;96.70
20845;DHT22;10583;49.084;8.646;2022-08-14T07:12:57;23.90;97.00
20845;DHT22;10583;49.084;8.646;2022-08-14T07:15:24;24.20;96.60
20845;DHT22;10583;49.084;8.646;2022-08-14T07:17:51;24.20;96.10
20845;DHT22;10583;49.084;8.646;2022-08-14T07:20:19;24.30;96.40
20845;DHT22;10583;49.084;8.646;2022-08-14T07:22:46;24.60;95.80
20845;DHT22;10583;49.084;8.646;2022-08-14T07:25:13;24.70;95.90
20845;DHT22;10583;49.084;8.646;2022-08-14T07:27:39;24.90;95.40
20845;DHT22;10583;49.084;8.646;2022-08-14T07:30:07;25.20;95.00
20845;DHT22;10583;49.084;8.646;2022-08-14T07:32:34;25.50;94.40
20845;DHT22;10583;49.084;8.646;2022-08-14T07:35:01;25.80;93.90
20845;DHT22;10583;49.084;8.646;2022-08-14T07:37:29;25.90;94.30
20845;DHT22;10583;49.084;8.646;2022-08-14T07:39:56;25.80;93.30
20845;DHT22;10583;49.084;8.646;2022-08-14T07:42:22;25.70;93.50
20845;DHT22;10583;49.084;8.646;2022-08-14T07:44:50;25.80;93.40
20845;DHT22;10583;49.084;8.646;2022-08-14T07:47:17;26.00;93.10
20845;DHT22;10583;49.084;8.646;2022-08-14T07:49:52;26.10;93.00
20845;DHT22;10583;49.084;8.646;2022-08-14T07:52:20;26.20;92.80
20845;DHT22;10583;49.084;8.646;2022-08-14T07:54:48;26.50;93.10
20845;DHT22;10583;49.084;8.646;2022-08-14T07:57:15;26.80;92.00
20845;DHT22;10583;49.084;8.646;2022-08-14T07:59:42;27.00;91.00
20845;DHT22;10583;49.084;8.646;2022-08-14T08:02:09;27.00;90.70
20845;DHT22;10583;49.084;8.646;2022-08-14T08:04:40;27.30;90.50
20845;DHT22;10583;49.084;8.646;2022-08-14T08:07:09;27.20;90.00
20845;DHT22;10583;49.084;8.646;2022-08-14T08:09:42;27.50;87.90
20845;DHT22;10583;49.084;8.646;2022-08-14T08:12:10;27.30;87.40
20845;DHT22;10583;49.084;8.646;2022-08-14T08:14:40;27.60;87.40
20845;DHT22;10583;49.084;8.646;2022-08-14T08:17:08;27.80;86.70
20845;DHT22;10583;49.084;8.646;2022-08-14T08:19:35;27.90;85.20
20845;DHT22;10583;49.084;8.646;2022-08-14T08:22:03;28.20;85.70
20845;DHT22;10583;49.084;8.646;2022-08-14T08:24:30;28.50;86.50
20845;DHT22;10583;49.084;8.646;2022-08-14T08:26:58;28.80;83.60
20845;DHT22;10583;49.084;8.646;2022-08-14T08:29:26;28.80;86.20
20845;DHT22;10583;49.084;8.646;2022-08-14T08:31:52;29.00;85.20
20845;DHT22;10583;49.084;8.646;2022-08-14T08:34:19;29.20;82.90
20845;DHT22;10583;49.084;8.646;2022-08-14T08:36:46;29.20;82.40
20845;DHT22;10583;49.084;8.646;2022-08-14T08:39:13;29.20;82.20
20845;DHT22;10583;49.084;8.646;2022-08-14T08:41:41;29.40;82.00
20845;DHT22;10583;49.084;8.646;2022-08-14T08:44:08;29.60;82.60
20845;DHT22;10583;49.084;8.646;2022-08-14T08:46:36;29.80;80.80
20845;DHT22;10583;49.084;8.646;2022-08-14T08:49:04;30.00;82.10
20845;DHT22;10583;49.084;8.646;2022-08-14T08:51:33;30.30;82.70
20845;DHT22;10583;49.084;8.646;2022-08-14T08:54:03;30.60;80.00
20845;DHT22;10583;49.084;8.646;2022-08-14T08:56:38;30.70;79.00
20845;DHT22;10583;49.084;8.646;2022-08-14T08:59:16;30.50;76.40
20845;DHT22;10583;49.084;8.646;2022-08-14T09:01:49;30.50;76.60
20845;DHT22;10583;49.084;8.646;2022-08-14T09:04:16;30.60;76.10
20845;DHT22;10583;49.084;8.646;2022-08-14T09:06:43;30.40;76.60
20845;DHT22;10583;49.084;8.646;2022-08-14T09:09:17;30.60;78.10
20845;DHT22;10583;49.084;8.646;2022-08-14T09:11:44;31.00;76.60
20845;DHT22;10583;49.084;8.646;2022-08-14T09:14:11;30.90;73.20
20845;DHT22;10583;49.084;8.646;2022-08-14T09:16:38;31.10;73.30
20845;DHT22;10583;49.084;8.646;2022-08-14T09:19:06;31.10;72.00
20845;DHT22;10583;49.084;8.646;2022-08-14T09:21:33;30.90;72.60
20845;DHT22;10583;49.084;8.646;2022-08-14T09:24:00;30.90;72.70
20845;DHT22;10583;49.084;8.646;2022-08-14T09:26:27;31.30;72.30
20845;DHT22;10583;49.084;8.646;2022-08-14T09:28:53;31.40;72.60
20845;DHT22;10583;49.084;8.646;2022-08-14T09:31:21;31.50;71.20
20845;DHT22;10583;49.084;8.646;2022-08-14T09:33:57;31.70;70.00
20845;DHT22;10583;49.084;8.646;2022-08-14T09:36:36;31.70;70.20
20845;DHT22;10583;49.084;8.646;2022-08-14T09:39:12;31.70;71.50
20845;DHT22;10583;49.084;8.646;2022-08-14T09:41:54;31.90;71.30
20845;DHT22;10583;49.084;8.646;2022-08-14T09:44:32;32.10;71.00
20845;DHT22;10583;49.084;8.646;2022-08-14T09:47:04;31.90;69.60
20845;DHT22;10583;49.084;8.646;2022-08-14T09:49:33;31.90;68.90
20845;DHT22;10583;49.084;8.646;2022-08-14T09:52:07;32.00;68.50
20845;DHT22;10583;49.084;8.646;2022-08-14T09:54:36;32.20;68.90
20845;DHT22;10583;49.084;8.646;2022-08-14T09:57:03;32.40;66.10
20845;DHT22;10583;49.084;8.646;2022-08-14T09:59:39;32.20;67.00
20845;DHT22;10583;49.084;8.646;2022-08-14T10:02:18;31.90;66.80
20845;DHT22;10583;49.084;8.646;2022-08-14T10:04:46;32.40;65.80
20845;DHT22;10583;49.084;8.646;2022-08-14T10:07:14;32.60;65.30
20845;DHT22;10583;49.084;8.646;2022-08-14T10:09:48;32.40;65.70
20845;DHT22;10583;49.084;8.646;2022-08-14T10:12:15;32.30;64.80
20845;DHT22;10583;49.084;8.646;2022-08-14T10:14:42;32.20;64.60
20845;DHT22;10583;49.084;8.646;2022-08-14T10:17:08;32.30;65.10
20845;DHT22;10583;49.084;8.646;2022-08-14T10:19:46;32.40;65.20
20845;DHT22;10583;49.084;8.646;2022-08-14T10:22:15;32.50;64.60
20845;DHT22;10583;49.084;8.646;2022-08-14T10:24:43;32.20;65.60
20845;DHT22;10583;49.084;8.646;2022-08-14T10:27:14;32.40;65.00
20845;DHT22;10583;49.084;8.646;2022-08-14T10:29:45;32.40;64.70
20845;DHT22;10583;49.084;8.646;2022-08-14T10:32:13;32.40;65.60
20845;DHT22;10583;49.084;8.646;2022-08-14T10:34:40;32.60;65.40
20845;DHT22;10583;49.084;8.646;2022-08-14T10:37:08;32.60;64.70
20845;DHT22;10583;49.084;8.646;2022-08-14T10:39:39;32.40;64.00
20845;DHT22;10583;49.084;8.646;2022-08-14T10:42:07;32.20;64.50
20845;DHT22;10583;49.084;8.646;2022-08-14T10:44:38;32.00;64.50
20845;DHT22;10583;49.084;8.646;2022-08-14T10:47:06;32.20;64.90
20845;DHT22;10583;49.084;8.646;2022-08-14T10:49:36;32.00;64.30
20845;DHT22;10583;49.084;8.646;2022-08-14T10:52:04;32.20;65.30
20845;DHT22;10583;49.084;8.646;2022-08-14T10:54:35;32.50;64.50
20845;DHT22;10583;49.084;8.646;2022-08-14T10:57:17;32.50;63.80
20845;DHT22;10583;49.084;8.646;2022-08-14T10:59:49;32.70;65.20
20845;DHT22;10583;49.084;8.646;2022-08-14T11:02:18;32.40;64.00
20845;DHT22;10583;49.084;8.646;2022-08-14T11:04:57;32.50;65.00
20845;DHT22;10583;49.084;8.646;2022-08-14T11:07:23;32.80;64.90
20845;DHT22;10583;49.084;8.646;2022-08-14T11:09:54;33.10;65.00
20845;DHT22;10583;49.084;8.646;2022-08-14T11:12:23;32.80;64.20
20845;DHT22;10583;49.084;8.646;2022-08-14T11:14:52;32.60;63.90
20845;DHT22;10583;49.084;8.646;2022-08-14T11:17:19;32.80;63.50
20845;DHT22;10583;49.084;8.646;2022-08-14T11:19:46;32.40;63.40
20845;DHT22;10583;49.084;8.646;2022-08-14T11:22:14;32.20;64.20
20845;DHT22;10583;49.084;8.646;2022-08-14T11:24:43;32.50;64.10
20845;DHT22;10583;49.084;8.646;2022-08-14T11:27:13;33.20;63.90
20845;DHT22;10583;49.084;8.646;2022-08-14T11:29:42;33.90;63.60
20845;DHT22;10583;49.084;8.646;2022-08-14T11:32:09;34.10;62.30
20845;DHT22;10583;49.084;8.646;2022-08-14T11:34:36;33.50;62.60
20845;DHT22;10583;49.084;8.646;2022-08-14T11:37:09;33.30;63.30
20845;DHT22;10583;49.084;8.646;2022-08-14T11:39:36;33.30;64.40
20845;DHT22;10583;49.084;8.646;2022-08-14T11:42:04;33.40;63.30
20845;DHT22;10583;49.084;8.646;2022-08-14T11:44:31;33.60;62.90
20845;DHT22;10583;49.084;8.646;2022-08-14T11:47:00;34.00;63.50
20845;DHT22;10583;49.084;8.646;2022-08-14T11:49:28;34.30;63.50
20845;DHT22;10583;49.084;8.646;2022-08-14T11:51:56;34.90;63.20
20845;DHT22;10583;49.084;8.646;2022-08-14T11:54:23;35.20;63.10
20845;DHT22;10583;49.084;8.646;2022-08-14T11:56:50;35.30;60.50
20845;DHT22;10583;49.084;8.646;2022-08-14T11:59:18;34.70;60.50
20845;DHT22;10583;49.084;8.646;2022-08-14T12:01:47;34.00;61.50
20845;DHT22;10583;49.084;8.646;2022-08-14T12:04:17;34.10;61.40
20845;DHT22;10583;49.084;8.646;2022-08-14T12:06:45;34.40;61.90
20845;DHT22;10583;49.084;8.646;2022-08-14T12:09:14;34.60;61.70
20845;DHT22;10583;49.084;8.646;2022-08-14T12:11:42;34.80;61.00
20845;DHT22;10583;49.084;8.646;2022-08-14T12:14:09;34.90;60.10
20845;DHT22;10583;49.084;8.646;2022-08-14T12:16:37;34.70;60.90
20845;DHT22;10583;49.084;8.646;2022-08-14T12:19:03;34.80;59.80
20845;DHT22;10583;49.084;8.646;2022-08-14T12:21:31;34.90;61.40
20845;DHT22;10583;49.084;8.646;2022-08-14T12:24:03;35.10;61.00
20845;DHT22;10583;49.084;8.646;2022-08-14T12:26:30;35.10;60.00
20845;DHT22;10583;49.084;8.646;2022-08-14T12:29:05;35.10;60.00
20845;DHT22;10583;49.084;8.646;2022-08-14T12:31:34;35.00;59.30
20845;DHT22;10583;49.084;8.646;2022-08-14T12:34:02;35.00;60.40
20845;DHT22;10583;49.084;8.646;2022-08-14T12:36:30;34.70;58.40
20845;DHT22;10583;49.084;8.646;2022-08-14T12:38:59;34.70;58.50
20845;DHT22;10583;49.084;8.646;2022-08-14T12:41:28;34.70;58.60
20845;DHT22;10583;49.084;8.646;2022-08-14T12:43:56;34.50;59.10
20845;DHT22;10583;49.084;8.646;2022-08-14T12:46:25;34.50;59.40
20845;DHT22;10583;49.084;8.646;2022-08-14T12:48:53;34.90;60.50
20845;DHT22;10583;49.084;8.646;2022-08-14T12:51:21;35.10;59.80
20845;DHT22;10583;49.084;8.646;2022-08-14T12:53:51;35.30;58.40
20845;DHT22;10583;49.084;8.646;2022-08-14T12:56:20;35.30;57.90
20845;DHT22;10583;49.084;8.646;2022-08-14T12:58:51;35.00;56.80
20845;DHT22;10583;49.084;8.646;2022-08-14T13:01:20;34.70;57.40
20845;DHT22;10583;49.084;8.646;2022-08-14T13:03:47;34.80;57.40
20845;DHT22;10583;49.084;8.646;2022-08-14T13:06:15;34.90;57.30
20845;DHT22;10583;49.084;8.646;2022-08-14T13:08:42;34.80;58.20
20845;DHT22;10583;49.084;8.646;2022-08-14T13:11:11;34.90;57.40
20845;DHT22;10583;49.084;8.646;2022-08-14T13:13:41;34.70;57.40
20845;DHT22;10583;49.084;8.646;2022-08-14T13:16:10;34.70;58.00
20845;DHT22;10583;49.084;8.646;2022-08-14T13:18:41;34.50;57.90
20845;DHT22;10583;49.084;8.646;2022-08-14T13:21:11;34.60;57.80
20845;DHT22;10583;49.084;8.646;2022-08-14T13:23:40;34.60;57.70
20845;DHT22;10583;49.084;8.646;2022-08-14T13:26:08;34.50;57.60
20845;DHT22;10583;49.084;8.646;2022-08-14T13:28:38;34.10;57.00
20845;DHT22;10583;49.084;8.646;2022-08-14T13:31:08;33.90;56.90
20845;DHT22;10583;49.084;8.646;2022-08-14T13:33:38;33.70;58.20
20845;DHT22;10583;49.084;8.646;2022-08-14T13:36:06;33.70;57.40
20845;DHT22;10583;49.084;8.646;2022-08-14T13:38:33;33.80;57.30
20845;DHT22;10583;49.084;8.646;2022-08-14T13:41:01;33.70;57.10
20845;DHT22;10583;49.084;8.646;2022-08-14T13:43:28;33.50;57.90
20845;DHT22;10583;49.084;8.646;2022-08-14T13:45:55;33.50;57.00
20845;DHT22;10583;49.084;8.646;2022-08-14T13:48:23;33.60;58.40
20845;DHT22;10583;49.084;8.646;2022-08-14T13:50:53;33.80;58.50
20845;DHT22;10583;49.084;8.646;2022-08-14T13:53:22;33.90;57.70
20845;DHT22;10583;49.084;8.646;2022-08-14T13:55:50;33.80;58.50
20845;DHT22;10583;49.084;8.646;2022-08-14T13:58:19;33.80;57.80
20845;DHT22;10583;49.084;8.646;2022-08-14T14:00:49;33.60;57.70
20845;DHT22;10583;49.084;8.646;2022-08-14T14:03:18;33.50;57.70
20845;DHT22;10583;49.084;8.646;2022-08-14T14:05:49;33.50;58.20
20845;DHT22;10583;49.084;8.646;2022-08-14T14:08:19;33.20;57.30
20845;DHT22;10583;49.084;8.646;2022-08-14T14:10:46;33.30;57.60
20845;DHT22;10583;49.084;8.646;2022-08-14T14:13:14;33.40;58.00
20845;DHT22;10583;49.084;8.646;2022-08-14T14:15:41;33.30;58.00
20845;DHT22;10583;49.084;8.646;2022-08-14T14:18:08;33.40;57.70
20845;DHT22;10583;49.084;8.646;2022-08-14T14:20:36;33.40;56.90
20845;DHT22;10583;49.084;8.646;2022-08-14T14:23:04;33.30;56.90
20845;DHT22;10583;49.084;8.646;2022-08-14T14:25:39;33.00;56.90
20845;DHT22;10583;49.084;8.646;2022-08-14T14:28:08;32.90;57.90
20845;DHT22;10583;49.084;8.646;2022-08-14T14:30:36;32.90;58.40
20845;DHT22;10583;49.084;8.646;2022-08-14T14:33:08;32.90;57.40
20845;DHT22;10583;49.084;8.646;2022-08-14T14:35:37;33.00;58.70
20845;DHT22;10583;49.084;8.646;2022-08-14T14:38:06;33.00;58.30
20845;DHT22;10583;49.084;8.646;2022-08-14T14:40:36;32.90;58.20
20845;DHT22;10583;49.084;8.646;2022-08-14T14:43:04;32.90;57.60
20845;DHT22;10583;49.084;8.646;2022-08-14T14:45:34;32.80;58.60
20845;DHT22;10583;49.084;8.646;2022-08-14T14:48:06;32.70;57.80
20845;DHT22;10583;49.084;8.646;2022-08-14T14:50:34;32.60;58.20
20845;DHT22;10583;49.084;8.646;2022-08-14T14:53:03;32.60;57.30
20845;DHT22;10583;49.084;8.646;2022-08-14T14:55:31;32.60;57.70
20845;DHT22;10583;49.084;8.646;2022-08-14T14:57:59;32.50;57.00
20845;DHT22;10583;49.084;8.646;2022-08-14T15:00:25;32.50;57.30
20845;DHT22;10583;49.084;8.646;2022-08-14T15:02:53;32.50;57.40
20845;DHT22;10583;49.084;8.646;2022-08-14T15:05:21;32.50;57.20
20845;DHT22;10583;49.084;8.646;2022-08-14T15:07:49;32.40;57.00
20845;DHT22;10583;49.084;8.646;2022-08-14T15:10:18;32.40;56.10
20845;DHT22;10583;49.084;8.646;2022-08-14T15:12:46;32.30;57.30
20845;DHT22;10583;49.084;8.646;2022-08-14T15:15:13;32.40;56.70
20845;DHT22;10583;49.084;8.646;2022-08-14T15:17:40;32.50;56.80
20845;DHT22;10583;49.084;8.646;2022-08-14T15:20:10;32.50;57.30
20845;DHT22;10583;49.084;8.646;2022-08-14T15:22:37;32.60;56.80
20845;DHT22;10583;49.084;8.646;2022-08-14T15:25:05;32.50;56.70
20845;DHT22;10583;49.084;8.646;2022-08-14T15:27:32;32.50;56.80
20845;DHT22;10583;49.084;8.646;2022-08-14T15:30:00;32.50;55.60
20845;DHT22;10583;49.084;8.646;2022-08-14T15:32:27;32.50;56.00
20845;DHT22;10583;49.084;8.646;2022-08-14T15:34:54;32.50;58.20
20845;DHT22;10583;49.084;8.646;2022-08-14T15:37:20;32.50;57.00
20845;DHT22;10583;49.084;8.646;2022-08-14T15:39:48;32.50;58.10